createdAt,value
2022-11-12T00:00:10.741Z,10.30
2022-11-12T00:02:37.477Z,7.90
2022-11-12T00:05:04.762Z,8.80
2022-11-12T00:07:31.489Z,9.40
2022-11-12T00:09:58.174Z,7.23
2022-11-12T00:12:26.391Z,7.60
2022-11-12T00:14:53.122Z,7.63
2022-11-12T00:17:19.902Z,6.57
2022-11-12T00:19:46.781Z,6.93
2022-11-12T00:22:13.523Z,8.00
2022-11-12T00:24:40.284Z,7.97
2022-11-12T00:27:07.021Z,6.70
2022-11-12T00:29:35.092Z,6.50
2022-11-12T00:32:01.997Z,6.83
2022-11-12T00:34:28.958Z,8.70
2022-11-12T00:36:55.698Z,7.80
2022-11-12T00:39:22.408Z,9.10
2022-11-12T00:41:49.164Z,10.50
2022-11-12T00:44:15.962Z,10.73
2022-11-12T00:46:44.327Z,11.03
2022-11-12T00:49:11.076Z,10.90
2022-11-12T00:51:38.174Z,8.40
2022-11-12T00:54:05.690Z,10.20
2022-11-12T00:56:35.503Z,11.80
2022-11-12T00:59:02.677Z,10.30
2022-11-12T01:01:29.655Z,8.27
2022-11-12T01:03:59.736Z,9.10
2022-11-12T01:06:26.901Z,11.20
2022-11-12T01:08:55.366Z,8.70
2022-11-12T01:11:24.155Z,9.20
2022-11-12T01:13:55.390Z,8.47
2022-11-12T01:16:24.309Z,9.70
2022-11-12T01:18:54.102Z,8.53
2022-11-12T01:21:23.262Z,8.57
2022-11-12T01:23:50.289Z,8.40
2022-11-12T01:26:19.547Z,9.77
2022-11-12T01:28:46.754Z,9.20
2022-11-12T01:31:16.920Z,7.67
2022-11-12T01:33:45.704Z,8.90
2022-11-12T01:36:13.816Z,8.90
2022-11-12T01:38:43.187Z,8.60
2022-11-12T01:41:13.026Z,8.80
2022-11-12T01:43:39.829Z,6.50
2022-11-12T01:46:14.413Z,7.17
2022-11-12T01:48:48.177Z,6.83
2022-11-12T01:51:15.915Z,8.43
2022-11-12T01:53:47.651Z,7.27
2022-11-12T01:56:16.337Z,8.23
2022-11-12T01:58:45.811Z,8.40
2022-11-12T02:01:12.592Z,8.13
2022-11-12T02:03:39.342Z,6.27
2022-11-12T02:06:09.247Z,7.17
2022-11-12T02:08:37.346Z,6.50
2022-11-12T02:11:13.615Z,7.83
2022-11-12T02:13:40.486Z,6.73
2022-11-12T02:16:08.923Z,6.10
2022-11-12T02:18:35.884Z,6.17
2022-11-12T02:21:07.444Z,7.10
2022-11-12T02:23:35.645Z,6.97
2022-11-12T02:26:02.462Z,6.20
2022-11-12T02:28:32.082Z,6.47
2022-11-12T02:30:58.790Z,6.63
2022-11-12T02:33:25.584Z,6.27
2022-11-12T02:35:52.330Z,6.20
2022-11-12T02:38:19.078Z,5.87
2022-11-12T02:40:47.129Z,6.13
2022-11-12T02:43:13.887Z,6.17
2022-11-12T02:45:40.800Z,6.23
2022-11-12T02:48:07.592Z,5.97
2022-11-12T02:50:34.333Z,6.40
2022-11-12T02:53:01.057Z,5.50
2022-11-12T02:55:27.756Z,6.30
2022-11-12T02:57:59.095Z,6.57
2022-11-12T03:00:25.930Z,6.87
2022-11-12T03:02:52.650Z,5.97
2022-11-12T03:05:19.365Z,5.90
2022-11-12T03:07:46.103Z,6.27
2022-11-12T03:10:12.908Z,6.30
2022-11-12T03:12:39.755Z,6.33
2022-11-12T03:15:09.564Z,6.50
2022-11-12T03:17:36.414Z,6.00
2022-11-12T03:20:03.486Z,5.27
2022-11-12T03:22:30.222Z,5.23
2022-11-12T03:24:57.082Z,6.77
2022-11-12T03:27:23.881Z,5.40
2022-11-12T03:29:50.594Z,5.83
2022-11-12T03:32:18.658Z,5.43
2022-11-12T03:34:45.401Z,5.10
2022-11-12T03:37:12.151Z,6.40
2022-11-12T03:39:39.018Z,6.83
2022-11-12T03:42:05.921Z,6.50
2022-11-12T03:44:32.957Z,5.00
2022-11-12T03:46:59.742Z,6.60
2022-11-12T03:49:27.831Z,6.20
2022-11-12T03:51:54.571Z,4.80
2022-11-12T03:54:21.315Z,6.37
2022-11-12T03:56:48.109Z,6.50
2022-11-12T03:59:15.003Z,5.20
2022-11-12T04:01:41.805Z,5.17
2022-11-12T04:04:09.686Z,5.30
2022-11-12T04:06:37.768Z,7.37
2022-11-12T04:09:04.569Z,6.77
2022-11-12T04:11:31.278Z,7.90
2022-11-12T04:13:58.190Z,6.50
2022-11-12T04:16:24.941Z,6.17
2022-11-12T04:18:54.104Z,5.87
2022-11-12T04:21:21.428Z,5.60
2022-11-12T04:23:49.658Z,5.53
2022-11-12T04:26:16.548Z,6.57
2022-11-12T04:28:43.300Z,5.80
2022-11-12T04:31:10.161Z,6.63
2022-11-12T04:33:36.901Z,5.23
2022-11-12T04:36:03.781Z,5.20
2022-11-12T04:38:30.519Z,6.50
2022-11-12T04:40:58.579Z,4.73
2022-11-12T04:43:25.448Z,5.20
2022-11-12T04:45:53.781Z,4.30
2022-11-12T04:48:21.558Z,5.50
2022-11-12T04:50:52.766Z,4.60
2022-11-12T04:53:19.499Z,6.60
2022-11-12T04:55:49.155Z,5.17
2022-11-12T04:58:17.487Z,4.60
2022-11-12T05:00:44.314Z,4.00
2022-11-12T05:03:11.330Z,4.63
2022-11-12T05:05:38.113Z,5.00
2022-11-12T05:08:04.899Z,4.27
2022-11-12T05:10:31.811Z,4.47
2022-11-12T05:12:58.599Z,5.60
2022-11-12T05:15:26.921Z,5.10
2022-11-12T05:17:53.673Z,5.67
2022-11-12T05:20:20.510Z,5.13
2022-11-12T05:23:04.445Z,4.67
2022-11-12T05:25:32.127Z,5.50
2022-11-12T05:27:58.869Z,5.03
2022-11-12T05:30:27.115Z,4.80
2022-11-12T05:32:53.845Z,4.97
2022-11-12T05:35:20.607Z,4.53
2022-11-12T05:37:47.350Z,4.03
2022-11-12T05:40:14.263Z,4.50
2022-11-12T05:42:41.053Z,5.60
2022-11-12T05:45:09.145Z,4.80
2022-11-12T05:47:37.215Z,4.60
2022-11-12T05:50:04.575Z,5.00
2022-11-12T05:52:31.341Z,4.27
2022-11-12T05:54:58.114Z,4.60
2022-11-12T05:57:27.227Z,3.40
2022-11-12T05:59:54.025Z,4.80
2022-11-12T06:02:20.818Z,5.67
2022-11-12T06:04:48.925Z,4.30
2022-11-12T06:07:15.740Z,4.37
2022-11-12T06:09:42.566Z,5.10
2022-11-12T06:12:09.471Z,4.50
2022-11-12T06:14:36.201Z,5.10
2022-11-12T06:17:02.929Z,3.67
2022-11-12T06:19:29.646Z,4.30
2022-11-12T06:21:57.723Z,4.47
2022-11-12T06:24:24.864Z,3.13
2022-11-12T06:26:51.721Z,3.50
2022-11-12T06:29:18.449Z,4.40
2022-11-12T06:31:45.160Z,5.40
2022-11-12T06:34:11.893Z,4.00
2022-11-12T06:36:38.614Z,4.57
2022-11-12T06:39:06.682Z,3.77
2022-11-12T06:41:33.536Z,3.70
2022-11-12T06:44:00.285Z,4.30
2022-11-12T06:46:27.063Z,4.20
2022-11-12T06:48:53.840Z,3.30
2022-11-12T06:51:21.134Z,4.27
2022-11-12T06:53:48.355Z,4.57
2022-11-12T06:56:16.513Z,3.83
2022-11-12T06:58:43.487Z,3.57
2022-11-12T07:01:12.785Z,3.60
2022-11-12T07:03:40.528Z,4.20
2022-11-12T07:06:09.481Z,3.40
2022-11-12T07:08:36.492Z,4.00
2022-11-12T07:11:03.505Z,3.63
2022-11-12T07:13:32.807Z,3.33
2022-11-12T07:16:00.881Z,3.90
2022-11-12T07:18:28.512Z,4.10
2022-11-12T07:20:59.888Z,3.53
2022-11-12T07:23:27.448Z,3.93
2022-11-12T07:25:58.566Z,5.60
2022-11-12T07:28:25.707Z,4.23
2022-11-12T07:30:58.465Z,4.30
2022-11-12T07:33:26.006Z,5.03
2022-11-12T07:36:00.149Z,4.37
2022-11-12T07:38:28.123Z,5.13
2022-11-12T07:40:59.800Z,4.47
2022-11-12T07:43:26.652Z,4.77
2022-11-12T07:45:53.370Z,6.60
2022-11-12T07:48:21.405Z,5.80
2022-11-12T07:50:48.218Z,6.20
2022-11-12T07:53:14.950Z,5.53
2022-11-12T07:55:41.682Z,5.20
2022-11-12T07:58:08.514Z,6.17
2022-11-12T08:00:35.210Z,6.37
2022-11-12T08:03:01.959Z,5.03
2022-11-12T08:05:30.035Z,5.17
2022-11-12T08:07:56.905Z,4.83
2022-11-12T08:10:23.737Z,5.93
2022-11-12T08:12:50.473Z,6.53
2022-11-12T08:15:17.195Z,5.43
2022-11-12T08:17:43.920Z,5.63
2022-11-12T08:20:11.058Z,5.40
2022-11-12T08:22:39.127Z,6.27
2022-11-12T08:25:06.932Z,6.13
2022-11-12T08:27:33.691Z,6.20
2022-11-12T08:30:00.427Z,5.67
2022-11-12T08:32:27.213Z,6.60
2022-11-12T08:34:54.076Z,7.03
2022-11-12T08:37:20.834Z,7.07
2022-11-12T08:39:48.946Z,6.33
2022-11-12T08:42:15.847Z,6.80
2022-11-12T08:44:42.562Z,6.93
2022-11-12T08:47:09.324Z,6.23
2022-11-12T08:49:36.070Z,6.30
2022-11-12T08:52:02.960Z,6.23
2022-11-12T08:54:29.660Z,6.03
2022-11-12T08:56:57.739Z,7.27
2022-11-12T08:59:24.429Z,6.10
2022-11-12T09:01:51.177Z,6.23
2022-11-12T09:04:17.988Z,6.20
2022-11-12T09:06:46.718Z,7.13
2022-11-12T09:09:16.674Z,5.20
2022-11-12T09:11:43.410Z,4.93
2022-11-12T09:14:11.543Z,5.57
2022-11-12T09:16:38.324Z,5.87
2022-11-12T09:19:05.059Z,5.13
2022-11-12T09:21:31.784Z,5.53
2022-11-12T09:23:58.488Z,6.07
2022-11-12T09:26:25.357Z,5.40
2022-11-12T09:28:52.074Z,6.13
2022-11-12T09:31:20.560Z,4.27
2022-11-12T09:33:47.281Z,5.07
2022-11-12T09:36:14.018Z,5.40
2022-11-12T09:38:40.738Z,4.83
2022-11-12T09:41:22.353Z,5.77
2022-11-12T09:43:51.627Z,5.87
2022-11-12T09:46:31.279Z,4.10
2022-11-12T09:49:05.222Z,3.30
2022-11-12T09:51:35.705Z,3.93
2022-11-12T09:54:12.811Z,3.87
2022-11-12T09:56:40.060Z,4.00
2022-11-12T09:59:11.610Z,5.87
2022-11-12T10:02:01.181Z,5.60
2022-11-12T10:05:00.612Z,3.80
2022-11-12T10:07:49.284Z,4.90
2022-11-12T10:10:21.168Z,4.33
2022-11-12T10:13:06.336Z,5.70
2022-11-12T10:15:50.470Z,5.83
2022-11-12T10:18:37.608Z,7.07
2022-11-12T10:21:16.328Z,6.40
2022-11-12T10:23:46.137Z,6.50
2022-11-12T10:26:16.853Z,6.70
2022-11-12T10:28:47.576Z,5.80
2022-11-12T10:31:16.276Z,6.87
2022-11-12T10:33:44.532Z,5.73
2022-11-12T10:36:23.656Z,5.07
2022-11-12T10:38:53.667Z,6.00
2022-11-12T10:41:24.006Z,5.07
2022-11-12T10:43:55.515Z,5.80
2022-11-12T10:46:24.515Z,6.77
2022-11-12T10:48:58.748Z,5.17
2022-11-12T10:51:28.300Z,5.20
2022-11-12T10:53:55.318Z,4.90
2022-11-12T10:56:26.506Z,5.50
2022-11-12T10:59:10.369Z,5.13
2022-11-12T11:01:41.608Z,5.37
2022-11-12T11:04:27.626Z,4.73
2022-11-12T11:07:04.288Z,5.70
2022-11-12T11:09:31.435Z,5.73
2022-11-12T11:11:58.702Z,5.83
2022-11-12T11:14:28.661Z,5.23
2022-11-12T11:16:59.244Z,6.33
2022-11-12T11:19:35.069Z,6.43
2022-11-12T11:22:19.649Z,5.23
2022-11-12T11:24:58.022Z,5.17
2022-11-12T11:27:32.176Z,5.17
2022-11-12T11:30:09.890Z,5.57
2022-11-12T11:32:55.158Z,4.63
2022-11-12T11:35:31.723Z,4.70
2022-11-12T11:38:15.776Z,4.10
2022-11-12T11:40:51.447Z,5.00
2022-11-12T11:43:35.718Z,4.10
2022-11-12T11:46:12.617Z,5.20
2022-11-12T11:48:54.050Z,4.93
2022-11-12T11:51:41.000Z,4.87
2022-11-12T11:54:20.796Z,5.33
2022-11-12T11:56:49.656Z,5.13
2022-11-12T11:59:24.099Z,4.33
2022-11-12T12:02:14.488Z,4.80
2022-11-12T12:04:47.029Z,5.40
2022-11-12T12:07:26.460Z,5.30
2022-11-12T12:09:59.198Z,5.40
2022-11-12T12:12:43.938Z,7.07
2022-11-12T12:15:35.898Z,5.30
2022-11-12T12:18:11.606Z,6.07
2022-11-12T12:20:45.541Z,5.53
2022-11-12T12:23:26.132Z,5.00
2022-11-12T12:25:59.020Z,5.10
2022-11-12T12:28:36.031Z,5.37
2022-11-12T12:31:08.312Z,5.60
2022-11-12T12:33:42.919Z,5.33
2022-11-12T12:36:15.017Z,4.00
2022-11-12T12:38:48.492Z,5.77
2022-11-12T12:41:21.273Z,4.63
2022-11-12T12:43:52.395Z,5.37
2022-11-12T12:46:25.572Z,4.70
2022-11-12T12:48:53.810Z,5.07
2022-11-12T12:51:21.818Z,4.40
2022-11-12T12:53:49.932Z,5.30
2022-11-12T12:56:48.063Z,4.73
2022-11-12T12:59:23.370Z,5.50
2022-11-12T13:01:58.614Z,5.13
2022-11-12T13:04:51.118Z,4.33
2022-11-12T13:07:18.285Z,4.80
2022-11-12T13:09:46.426Z,4.33
2022-11-12T13:12:17.069Z,4.40
2022-11-12T13:15:12.567Z,5.40
2022-11-12T13:17:50.213Z,4.57
2022-11-12T13:20:38.871Z,4.23
2022-11-12T13:23:10.594Z,4.73
2022-11-12T13:25:39.212Z,4.10
2022-11-12T13:28:15.134Z,4.80
2022-11-12T13:30:59.695Z,4.93
2022-11-12T13:33:32.601Z,4.93
2022-11-12T13:36:25.991Z,4.90
2022-11-12T13:38:58.773Z,5.03
2022-11-12T13:41:28.355Z,4.23
2022-11-12T13:43:56.489Z,5.40
2022-11-12T13:46:29.224Z,4.57
2022-11-12T13:48:59.980Z,4.60
2022-11-12T13:51:37.278Z,4.20
2022-11-12T13:54:25.530Z,4.40
2022-11-12T13:56:53.642Z,3.70
2022-11-12T13:59:22.263Z,3.40
2022-11-12T14:01:49.816Z,5.07
2022-11-12T14:04:19.195Z,4.67
2022-11-12T14:06:48.944Z,5.13
2022-11-12T14:09:35.075Z,4.80
2022-11-12T14:12:18.510Z,4.00
2022-11-12T14:15:00.620Z,5.40
2022-11-12T14:17:38.311Z,5.43
2022-11-12T14:20:23.044Z,5.23
2022-11-12T14:22:49.868Z,4.30
2022-11-12T14:25:19.176Z,5.00
2022-11-12T14:27:48.616Z,5.03
2022-11-12T14:30:19.393Z,4.83
2022-11-12T14:32:47.569Z,4.87
2022-11-12T14:35:33.948Z,3.80
2022-11-12T14:38:09.795Z,5.10
2022-11-12T14:40:41.983Z,5.00
2022-11-12T14:43:29.476Z,3.60
2022-11-12T14:45:58.144Z,5.77
2022-11-12T14:48:25.345Z,6.67
2022-11-12T14:50:58.124Z,7.10
2022-11-12T14:53:30.381Z,5.17
2022-11-12T14:55:58.703Z,5.13
2022-11-12T14:58:27.014Z,6.07
2022-11-12T15:00:55.257Z,6.20
2022-11-12T15:03:25.795Z,6.43
2022-11-12T15:05:55.361Z,5.20
2022-11-12T15:08:32.894Z,5.93
2022-11-12T15:11:21.885Z,5.60
2022-11-12T15:13:53.628Z,6.63
2022-11-12T15:16:24.193Z,7.27
2022-11-12T15:19:15.397Z,7.17
2022-11-12T15:21:45.948Z,6.27
2022-11-12T15:24:18.646Z,6.97
2022-11-12T15:26:47.142Z,8.20
2022-11-12T15:29:24.309Z,5.13
2022-11-12T15:31:53.389Z,6.00
2022-11-12T15:34:43.509Z,7.03
2022-11-12T15:37:12.807Z,8.00
2022-11-12T15:39:42.448Z,6.63
2022-11-12T15:42:15.617Z,7.43
2022-11-12T15:44:45.301Z,7.07
2022-11-12T15:47:20.404Z,7.57
2022-11-12T15:49:48.655Z,4.93
2022-11-12T15:52:15.451Z,5.33
2022-11-12T15:54:42.189Z,6.13
2022-11-12T16:07:10.041Z,5.77
2022-11-12T16:09:36.910Z,4.37
2022-11-12T16:12:35.608Z,5.57
2022-11-12T16:15:13.685Z,6.67
2022-11-12T16:21:16.620Z,6.97
2022-11-12T16:27:42.729Z,7.87
2022-11-12T16:35:59.475Z,6.80
2022-11-12T16:38:53.506Z,7.13
2022-11-12T16:41:20.319Z,8.47
2022-11-12T16:43:47.132Z,8.90
2022-11-12T16:46:20.917Z,7.17
2022-11-12T16:48:47.637Z,7.43
2022-11-12T16:51:17.571Z,8.87
2022-11-12T16:53:46.533Z,9.63
2022-11-12T16:56:16.029Z,10.10
2022-11-12T16:58:42.852Z,11.70
2022-11-12T17:01:14.074Z,11.70
2022-11-12T17:03:41.165Z,14.63
2022-11-12T17:06:07.968Z,12.73
2022-11-12T17:08:34.748Z,10.87
2022-11-12T17:11:08.291Z,12.13
2022-11-12T17:13:36.027Z,11.37
2022-11-12T17:16:02.941Z,13.97
2022-11-12T17:18:29.731Z,14.80
2022-11-12T17:20:56.623Z,14.77
2022-11-12T17:23:23.818Z,13.47
2022-11-12T17:26:00.268Z,11.33
2022-11-12T17:28:29.486Z,13.30
2022-11-12T17:31:07.581Z,13.13
2022-11-12T17:33:38.440Z,11.93
2022-11-12T17:36:07.681Z,17.60
2022-11-12T17:38:34.452Z,14.90
2022-11-12T17:41:01.500Z,22.53
2022-11-12T17:43:29.890Z,18.70
2022-11-12T17:45:57.241Z,14.70
2022-11-12T17:48:24.457Z,17.20
2022-11-12T17:50:52.456Z,14.67
2022-11-12T17:53:19.307Z,19.07
2022-11-12T17:55:46.152Z,18.53
2022-11-12T17:58:12.895Z,13.30
2022-11-12T18:00:41.197Z,19.10
2022-11-12T18:03:07.993Z,20.10
2022-11-12T18:05:34.756Z,15.20
2022-11-12T18:08:01.525Z,20.43
2022-11-12T18:10:29.326Z,25.60
2022-11-12T18:12:56.043Z,22.90
2022-11-12T18:15:22.918Z,24.47
2022-11-12T18:17:51.058Z,23.17
2022-11-12T18:20:17.954Z,22.13
2022-11-12T18:22:45.122Z,31.47
2022-11-12T18:25:12.406Z,34.70
2022-11-12T18:27:39.156Z,30.60
2022-11-12T18:30:06.767Z,28.83
2022-11-12T18:32:33.691Z,31.97
2022-11-12T18:35:01.760Z,32.63
2022-11-12T18:37:28.527Z,30.70
2022-11-12T18:39:55.268Z,28.40
2022-11-12T18:42:22.026Z,26.77
2022-11-12T18:44:48.817Z,28.40
2022-11-12T18:47:15.528Z,31.00
2022-11-12T18:49:42.270Z,34.27
2022-11-12T18:52:10.368Z,35.53
2022-11-12T18:54:37.230Z,37.07
2022-11-12T18:57:05.367Z,37.17
2022-11-12T18:59:33.258Z,33.43
2022-11-12T19:02:00.030Z,35.37
2022-11-12T19:04:26.822Z,29.33
2022-11-12T19:06:53.716Z,32.00
2022-11-12T19:09:21.841Z,26.10
2022-11-12T19:11:48.652Z,37.27
2022-11-12T19:14:15.370Z,36.43
2022-11-12T19:16:42.273Z,36.50
2022-11-12T19:19:09.041Z,39.13
2022-11-12T19:21:35.971Z,32.70
2022-11-12T19:24:02.752Z,26.20
2022-11-12T19:26:30.851Z,36.53
2022-11-12T19:28:57.714Z,32.53
2022-11-12T19:31:25.981Z,32.77
2022-11-12T19:33:52.852Z,40.70
2022-11-12T19:36:21.894Z,31.30
2022-11-12T19:38:53.146Z,36.37
2022-11-12T19:41:20.328Z,37.53
2022-11-12T19:43:48.481Z,34.60
2022-11-12T19:46:15.492Z,31.53
2022-11-12T19:48:42.252Z,35.20
2022-11-12T19:51:10.984Z,36.40
2022-11-12T19:53:39.492Z,29.53
2022-11-12T19:56:07.561Z,34.40
2022-11-12T19:58:34.543Z,38.03
2022-11-12T20:01:06.977Z,32.77
2022-11-12T20:03:34.287Z,38.80
2022-11-12T20:06:01.651Z,36.07
2022-11-12T20:08:28.794Z,30.57
2022-11-12T20:10:55.890Z,39.07
2022-11-12T20:13:22.851Z,36.37
2022-11-12T20:15:49.586Z,40.80
2022-11-12T20:18:17.933Z,42.50
2022-11-12T20:20:47.731Z,32.50
2022-11-12T20:23:14.484Z,34.47
2022-11-12T20:25:41.462Z,35.00
2022-11-12T20:28:08.454Z,34.93
2022-11-12T20:30:35.360Z,27.23
2022-11-12T20:33:02.156Z,32.70
2022-11-12T20:35:30.276Z,36.77
2022-11-12T20:37:57.037Z,34.47
2022-11-12T20:40:23.753Z,33.57
2022-11-12T20:42:50.473Z,34.27
2022-11-12T20:45:17.263Z,30.50
2022-11-12T20:47:44.033Z,39.13
2022-11-12T20:50:10.740Z,31.70
2022-11-12T20:52:38.859Z,33.63
2022-11-12T20:55:06.122Z,33.40
2022-11-12T20:57:32.863Z,32.10
2022-11-12T20:59:59.592Z,27.90
2022-11-12T21:02:26.577Z,33.40
2022-11-12T21:04:53.754Z,39.73
2022-11-12T21:07:20.671Z,31.43
2022-11-12T21:09:48.864Z,33.50
2022-11-12T21:12:15.592Z,35.43
2022-11-12T21:14:47.433Z,30.27
2022-11-12T21:17:16.829Z,37.67
2022-11-12T21:19:43.640Z,40.13
2022-11-12T21:22:10.361Z,37.10
2022-11-12T21:24:37.122Z,37.03
2022-11-12T21:27:05.210Z,36.87
2022-11-12T21:29:32.116Z,33.97
2022-11-12T21:31:58.906Z,36.13
2022-11-12T21:34:25.926Z,41.30
2022-11-12T21:36:52.769Z,34.80
2022-11-12T21:39:19.498Z,37.90
2022-11-12T21:41:46.243Z,35.77
2022-11-12T21:44:14.316Z,35.10
2022-11-12T21:46:41.086Z,35.63
2022-11-12T21:49:07.993Z,34.90
2022-11-12T21:51:34.739Z,34.50
2022-11-12T21:54:03.590Z,38.83
2022-11-12T21:56:31.142Z,35.23
2022-11-12T21:58:58.242Z,38.67
2022-11-12T22:01:27.629Z,33.97
2022-11-12T22:03:55.453Z,34.37
2022-11-12T22:06:24.008Z,33.07
2022-11-12T22:08:52.050Z,36.30
2022-11-12T22:11:19.181Z,39.73
2022-11-12T22:13:46.182Z,36.20
2022-11-12T22:16:14.555Z,33.73
2022-11-12T22:18:43.549Z,33.50
2022-11-12T22:21:12.416Z,32.47
2022-11-12T22:23:39.554Z,39.20
2022-11-12T22:26:08.058Z,33.93
2022-11-12T22:28:34.922Z,38.40
2022-11-12T22:31:06.428Z,34.67
2022-11-12T22:33:33.480Z,37.40
2022-11-12T22:36:06.669Z,31.70
2022-11-12T22:38:34.517Z,33.30
2022-11-12T22:41:03.061Z,35.43
2022-11-12T22:43:29.815Z,40.53
2022-11-12T22:45:56.641Z,40.43
2022-11-12T22:48:23.550Z,36.47
2022-11-12T22:50:50.444Z,35.70
2022-11-12T22:53:18.797Z,34.70
2022-11-12T22:55:45.516Z,35.30
2022-11-12T22:58:12.391Z,35.53
2022-11-12T23:00:39.306Z,31.40
2022-11-12T23:03:06.182Z,33.10
2022-11-12T23:05:32.946Z,29.10
2022-11-12T23:07:59.941Z,32.97
2022-11-12T23:10:28.123Z,35.13
2022-11-12T23:12:55.523Z,35.40
2022-11-12T23:15:22.320Z,32.10
2022-11-12T23:17:49.037Z,30.17
2022-11-12T23:20:16.194Z,34.63
2022-11-12T23:22:42.980Z,32.70
2022-11-12T23:25:09.795Z,29.40
2022-11-12T23:27:37.885Z,31.80
2022-11-12T23:30:05.314Z,30.97
2022-11-12T23:32:32.106Z,28.30
2022-11-12T23:34:58.921Z,25.93
2022-11-12T23:37:25.704Z,26.57
2022-11-12T23:39:52.497Z,19.60
2022-11-12T23:42:19.300Z,16.43
2022-11-12T23:44:47.498Z,16.27
2022-11-12T23:47:14.341Z,18.37
2022-11-12T23:49:41.267Z,20.67
2022-11-12T23:52:10.721Z,21.60
2022-11-12T23:54:40.459Z,23.87
2022-11-12T23:57:07.278Z,24.00
2022-11-12T23:59:36.987Z,26.27
